Time;durP1;ratioP1;P1;durP2;ratioP2;P2;SDS_P1;SDS_P2;PMS_P1;PMS_P2;Temp;Humidity;BMP_temperature;BMP_pressure;BME280_temperature;BME280_humidity;BME280_pressure;Samples;Min_cycle;Max_cycle;Signal;HPM_P1;HPM_P2
2023/11/12 00:01:16;;;;;;;6.57;5.97;;;;;;;;;;6283195;28;20299;-69
2023/11/12 00:04:20;;;;;;;6.30;5.80;;;;;;;;;;6283518;28;20303;-70
2023/11/12 00:07:24;;;;;;;6.47;5.88;;;;;;;;;;6284049;28;20582;-69
2023/11/12 00:10:27;;;;;;;6.32;5.72;;;;;;;;;;6283374;28;20299;-70
2023/11/12 00:13:33;;;;;;;6.22;5.70;;;;;;;;;;6294785;28;20294;-71
2023/11/12 00:16:37;;;;;;;5.15;4.75;;;;;;;;;;6308316;28;20306;-70
2023/11/12 00:19:40;;;;;;;4.60;4.20;;;;;;;;;;6308408;28;20297;-70
2023/11/12 00:22:44;;;;;;;4.97;4.45;;;;;;;;;;6308298;28;20290;-71
2023/11/12 00:25:48;;;;;;;4.35;4.25;;;;;;;;;;6306152;28;20473;-73
2023/11/12 00:28:54;;;;;;;4.25;4.05;;;;;;;;;;6307790;28;20590;-70
2023/11/12 00:31:58;;;;;;;4.45;4.25;;;;;;;;;;6306298;28;20302;-70
2023/11/12 00:35:02;;;;;;;4.35;4.03;;;;;;;;;;6307805;28;20293;-70
2023/11/12 00:38:06;;;;;;;3.90;3.80;;;;;;;;;;6306189;28;20302;-71
2023/11/12 00:41:10;;;;;;;4.03;3.78;;;;;;;;;;6306023;28;20290;-69
2023/11/12 00:44:15;;;;;;;3.85;3.65;;;;;;;;;;6307305;28;20475;-69
2023/11/12 00:47:19;;;;;;;3.97;3.88;;;;;;;;;;6307673;28;20306;-71
2023/11/12 00:50:23;;;;;;;4.28;3.63;;;;;;;;;;6306333;28;20306;-69
2023/11/12 00:53:30;;;;;;;3.92;3.83;;;;;;;;;;6304555;28;20294;-70
2023/11/12 00:56:34;;;;;;;4.10;3.90;;;;;;;;;;6307049;28;20302;-69
2023/11/12 00:59:39;;;;;;;4.60;4.40;;;;;;;;;;6307386;28;20357;-70
2023/11/12 01:02:42;;;;;;;4.40;4.10;;;;;;;;;;6307371;28;20302;-70
2023/11/12 01:05:46;;;;;;;5.20;4.70;;;;;;;;;;6305691;28;20580;-70
2023/11/12 01:08:50;;;;;;;4.68;4.47;;;;;;;;;;6305429;28;20286;-72
2023/11/12 01:11:54;;;;;;;5.70;4.70;;;;;;;;;;6293221;28;20286;-68
2023/11/12 01:14:59;;;;;;;4.63;4.35;;;;;;;;;;6281673;28;20474;-70
2023/11/12 01:18:03;;;;;;;5.20;4.75;;;;;;;;;;6281882;28;20531;-69
2023/11/12 01:21:07;;;;;;;5.18;4.88;;;;;;;;;;6281504;28;20294;-71
2023/11/12 01:24:11;;;;;;;5.05;4.75;;;;;;;;;;6280382;28;20326;-72
2023/11/12 01:27:15;;;;;;;5.40;5.00;;;;;;;;;;6282011;28;20259;-70
2023/11/12 01:30:20;;;;;;;5.38;4.88;;;;;;;;;;6281543;28;20608;-69
2023/11/12 01:33:24;;;;;;;5.18;4.90;;;;;;;;;;6281914;28;20243;-70
2023/11/12 01:36:28;;;;;;;5.00;4.55;;;;;;;;;;6281410;28;20303;-70
2023/11/12 01:39:31;;;;;;;5.13;4.82;;;;;;;;;;6281143;28;20314;-70
2023/11/12 01:42:35;;;;;;;5.40;5.10;;;;;;;;;;6281814;28;20603;-70
2023/11/12 01:45:40;;;;;;;7.32;5.43;;;;;;;;;;6280821;28;20278;-70
2023/11/12 01:48:45;;;;;;;5.63;5.20;;;;;;;;;;6280945;28;20287;-70
2023/11/12 01:51:50;;;;;;;5.70;5.20;;;;;;;;;;6278759;28;20286;-70
2023/11/12 01:54:54;;;;;;;5.80;5.30;;;;;;;;;;6279792;28;20588;-70
2023/11/12 01:57:59;;;;;;;4.55;4.30;;;;;;;;;;6281157;28;20278;-69
2023/11/12 02:01:04;;;;;;;5.10;4.80;;;;;;;;;;6279582;28;20291;-71
2023/11/12 02:04:09;;;;;;;5.57;5.10;;;;;;;;;;6279466;28;20589;-71
2023/11/12 02:07:13;;;;;;;6.07;5.55;;;;;;;;;;6280153;28;20290;-69
2023/11/12 02:10:18;;;;;;;5.78;5.15;;;;;;;;;;6279727;28;20295;-69
2023/11/12 02:13:22;;;;;;;5.13;4.82;;;;;;;;;;6305888;28;20294;-70
2023/11/12 02:16:27;;;;;;;5.50;5.07;;;;;;;;;;6305285;28;20305;-69
2023/11/12 02:19:31;;;;;;;5.80;5.40;;;;;;;;;;6305300;28;20309;-69
2023/11/12 02:22:35;;;;;;;6.05;5.47;;;;;;;;;;6304188;28;20290;-70
2023/11/12 02:25:40;;;;;;;5.47;5.07;;;;;;;;;;6305127;28;20317;-69
2023/11/12 02:28:44;;;;;;;4.05;3.92;;;;;;;;;;6304439;28;20302;-70
2023/11/12 02:31:48;;;;;;;4.13;3.92;;;;;;;;;;6303605;28;20631;-69
2023/11/12 02:34:52;;;;;;;3.95;3.63;;;;;;;;;;6303892;28;20290;-71
2023/11/12 02:37:56;;;;;;;2.92;2.92;;;;;;;;;;6304363;28;20290;-69
2023/11/12 02:41:01;;;;;;;3.13;3.00;;;;;;;;;;6303562;28;20476;-69
2023/11/12 02:44:07;;;;;;;2.55;2.47;;;;;;;;;;6304422;28;20481;-69
2023/11/12 02:47:11;;;;;;;2.42;2.40;;;;;;;;;;6304864;28;20386;-70
2023/11/12 02:50:25;;;;;;;2.58;2.47;;;;;;;;;;6304373;28;20298;-70
2023/11/12 02:53:29;;;;;;;3.42;3.28;;;;;;;;;;6304069;28;20311;-71
2023/11/12 02:56:34;;;;;;;2.97;2.90;;;;;;;;;;6305412;28;20298;-69
2023/11/12 02:59:39;;;;;;;2.45;2.45;;;;;;;;;;6305098;28;20479;-70
2023/11/12 03:02:45;;;;;;;2.40;2.40;;;;;;;;;;6309337;28;20294;-69
2023/11/12 03:05:49;;;;;;;2.33;2.22;;;;;;;;;;6308262;28;20330;-69
2023/11/12 03:08:54;;;;;;;2.50;2.40;;;;;;;;;;6309799;28;20297;-71
2023/11/12 03:11:59;;;;;;;1.90;1.90;;;;;;;;;;6294344;28;20283;-69
2023/11/12 03:15:04;;;;;;;2.25;2.03;;;;;;;;;;6284221;28;20290;-69
2023/11/12 03:18:07;;;;;;;1.73;1.73;;;;;;;;;;6284697;28;20303;-69
2023/11/12 03:21:11;;;;;;;1.92;1.92;;;;;;;;;;6282360;28;20295;-70
2023/11/12 03:24:15;;;;;;;1.80;1.80;;;;;;;;;;6284056;28;20298;-69
2023/11/12 03:27:20;;;;;;;1.95;1.85;;;;;;;;;;6284749;28;20272;-70
2023/11/12 03:30:24;;;;;;;1.90;1.80;;;;;;;;;;6283053;28;20442;-70
2023/11/12 03:33:28;;;;;;;2.13;1.92;;;;;;;;;;6284500;28;20259;-70
2023/11/12 03:36:32;;;;;;;2.05;1.80;;;;;;;;;;6283843;28;20290;-69
2023/11/12 03:39:36;;;;;;;2.03;1.80;;;;;;;;;;6283699;28;20611;-70
2023/11/12 03:42:41;;;;;;;1.55;1.55;;;;;;;;;;6283865;28;20366;-70
2023/11/12 03:45:45;;;;;;;1.30;1.30;;;;;;;;;;6281569;28;20338;-68
2023/11/12 03:48:49;;;;;;;1.50;1.50;;;;;;;;;;6283490;28;20291;-69
2023/11/12 03:51:53;;;;;;;1.30;1.30;;;;;;;;;;6282176;28;20306;-70
2023/11/12 03:54:57;;;;;;;1.35;1.35;;;;;;;;;;6282695;28;20302;-69
2023/11/12 03:58:02;;;;;;;1.50;1.50;;;;;;;;;;6282467;28;20302;-70
2023/11/12 04:01:07;;;;;;;1.15;1.15;;;;;;;;;;6283103;28;20322;-69
2023/11/12 04:04:11;;;;;;;1.35;1.35;;;;;;;;;;6280449;28;20236;-70
2023/11/12 04:07:15;;;;;;;1.35;1.25;;;;;;;;;;6283397;28;20298;-70
2023/11/12 04:10:19;;;;;;;1.20;1.10;;;;;;;;;;6281734;28;20307;-70
2023/11/12 04:13:25;;;;;;;1.00;1.00;;;;;;;;;;6279951;28;20294;-70
2023/11/12 04:16:29;;;;;;;0.93;0.93;;;;;;;;;;6283525;28;20306;-69
2023/11/12 04:19:32;;;;;;;1.10;1.10;;;;;;;;;;6281985;28;20295;-69
2023/11/12 04:22:37;;;;;;;1.05;1.05;;;;;;;;;;6295079;28;20370;-69
2023/11/12 04:25:42;;;;;;;1.00;1.00;;;;;;;;;;6306476;28;20452;-69
2023/11/12 04:28:47;;;;;;;0.90;0.90;;;;;;;;;;6306520;28;20302;-69
2023/11/12 04:31:50;;;;;;;1.00;1.00;;;;;;;;;;6306864;28;20286;-70
2023/11/12 04:34:54;;;;;;;1.42;1.30;;;;;;;;;;6306229;28;20325;-70
2023/11/12 04:38:00;;;;;;;2.65;1.20;;;;;;;;;;6284332;28;20287;-70
2023/11/12 04:41:04;;;;;;;1.00;1.00;;;;;;;;;;6281564;28;20291;-70
2023/11/12 04:44:09;;;;;;;1.00;1.00;;;;;;;;;;6282038;28;20315;-70
2023/11/12 04:47:13;;;;;;;0.80;0.80;;;;;;;;;;6282565;28;20327;-70
2023/11/12 04:50:17;;;;;;;0.70;0.70;;;;;;;;;;6282210;28;20323;-70
2023/11/12 04:53:21;;;;;;;0.80;0.80;;;;;;;;;;6281083;28;20326;-69
2023/11/12 04:56:25;;;;;;;0.80;0.80;;;;;;;;;;6282658;28;20299;-69
2023/11/12 04:59:30;;;;;;;0.93;0.93;;;;;;;;;;6281950;28;20303;-69
2023/11/12 05:02:34;;;;;;;1.10;1.10;;;;;;;;;;6282353;28;20298;-71
2023/11/12 05:05:38;;;;;;;0.98;0.98;;;;;;;;;;6281903;28;20318;-69
2023/11/12 05:08:42;;;;;;;1.08;1.00;;;;;;;;;;6281847;28;20295;-70
2023/11/12 05:11:46;;;;;;;1.13;1.13;;;;;;;;;;6300109;28;20580;-69
2023/11/12 05:14:51;;;;;;;1.27;1.27;;;;;;;;;;6306623;28;20298;-70
2023/11/12 05:17:54;;;;;;;1.10;1.10;;;;;;;;;;6306304;28;20302;-70
2023/11/12 05:20:58;;;;;;;1.05;1.05;;;;;;;;;;6306563;28;20567;-70
2023/11/12 05:24:02;;;;;;;1.15;1.15;;;;;;;;;;6305491;28;20442;-70
2023/11/12 05:27:05;;;;;;;1.20;1.20;;;;;;;;;;6306430;28;20325;-69
2023/11/12 05:30:12;;;;;;;1.23;1.23;;;;;;;;;;6306119;28;20318;-70
2023/11/12 05:33:16;;;;;;;1.35;1.35;;;;;;;;;;6304737;28;20298;-69
2023/11/12 05:36:20;;;;;;;1.13;1.13;;;;;;;;;;6281620;28;20255;-69
2023/11/12 05:39:23;;;;;;;1.15;1.15;;;;;;;;;;6281469;28;20556;-69
2023/11/12 05:42:27;;;;;;;1.20;1.20;;;;;;;;;;6281748;28;20266;-70
2023/11/12 05:45:32;;;;;;;1.38;1.30;;;;;;;;;;6280796;28;20310;-69
2023/11/12 05:48:36;;;;;;;1.42;1.33;;;;;;;;;;6281060;28;20298;-71
2023/11/12 05:51:40;;;;;;;1.05;1.05;;;;;;;;;;6280092;28;20617;-75
2023/11/12 05:54:44;;;;;;;1.30;1.30;;;;;;;;;;6279371;28;20496;-71
2023/11/12 05:57:48;;;;;;;1.27;1.27;;;;;;;;;;6281240;28;20303;-69
2023/11/12 06:00:55;;;;;;;1.40;1.30;;;;;;;;;;6305097;28;20286;-69
2023/11/12 06:04:00;;;;;;;1.38;1.38;;;;;;;;;;6298576;28;20299;-69
2023/11/12 06:07:04;;;;;;;3.17;1.33;;;;;;;;;;6281181;28;20283;-70
2023/11/12 06:10:08;;;;;;;1.30;1.30;;;;;;;;;;6276307;28;20300;-69
2023/11/12 06:13:12;;;;;;;5.30;1.50;;;;;;;;;;6254343;28;20487;-69
2023/11/12 06:16:17;;;;;;;1.50;1.42;;;;;;;;;;6256478;28;20402;-70
2023/11/12 06:19:22;;;;;;;1.42;1.42;;;;;;;;;;6255379;28;20407;-69
2023/11/12 06:22:25;;;;;;;1.58;1.48;;;;;;;;;;6255978;28;20348;-71
2023/11/12 06:25:29;;;;;;;1.40;1.40;;;;;;;;;;6255134;28;20587;-70
2023/11/12 06:28:33;;;;;;;1.40;1.30;;;;;;;;;;6255234;28;20298;-70
2023/11/12 06:31:39;;;;;;;2.10;1.63;;;;;;;;;;6255630;28;20589;-70
2023/11/12 06:34:42;;;;;;;1.25;1.25;;;;;;;;;;6255345;28;20291;-71
2023/11/12 06:37:46;;;;;;;1.50;1.50;;;;;;;;;;6260716;28;20296;-70
2023/11/12 06:40:50;;;;;;;1.40;1.40;;;;;;;;;;6259966;28;20295;-70
2023/11/12 06:43:53;;;;;;;1.73;1.50;;;;;;;;;;6260019;28;20307;-70
2023/11/12 06:46:58;;;;;;;3.95;1.50;;;;;;;;;;6260105;28;20303;-71
2023/11/12 06:50:02;;;;;;;1.10;1.10;;;;;;;;;;6259995;28;20291;-70
2023/11/12 06:53:07;;;;;;;2.83;1.30;;;;;;;;;;6258137;28;20387;-70
2023/11/12 06:56:10;;;;;;;1.63;1.52;;;;;;;;;;6260228;28;20283;-70
2023/11/12 06:59:14;;;;;;;1.33;1.33;;;;;;;;;;6259876;28;20565;-70
2023/11/12 07:02:19;;;;;;;1.33;1.20;;;;;;;;;;6260389;28;20295;-71
2023/11/12 07:05:23;;;;;;;1.45;1.45;;;;;;;;;;6259346;28;20299;-70
2023/11/12 07:08:27;;;;;;;1.33;1.33;;;;;;;;;;6259684;28;20303;-71
2023/11/12 07:11:31;;;;;;;2.10;1.33;;;;;;;;;;6275730;28;20470;-71
2023/11/12 07:14:34;;;;;;;1.30;1.25;;;;;;;;;;6284483;28;20303;-71
2023/11/12 07:17:40;;;;;;;2.60;1.30;;;;;;;;;;6284791;28;20286;-70
2023/11/12 07:20:44;;;;;;;1.25;1.15;;;;;;;;;;6284325;28;20303;-70
2023/11/12 07:23:48;;;;;;;1.10;1.10;;;;;;;;;;6284204;28;20339;-70
2023/11/12 07:26:51;;;;;;;2.08;1.17;;;;;;;;;;6284554;28;20302;-70
2023/11/12 07:29:55;;;;;;;1.10;1.10;;;;;;;;;;6284049;28;20326;-70
2023/11/12 07:33:00;;;;;;;1.10;1.10;;;;;;;;;;6284515;28;20393;-70
2023/11/12 07:36:06;;;;;;;1.10;1.10;;;;;;;;;;6284655;28;20334;-70
2023/11/12 07:39:12;;;;;;;0.98;0.98;;;;;;;;;;6283764;28;20300;-71
2023/11/12 07:42:16;;;;;;;1.02;1.00;;;;;;;;;;6308250;28;20282;-69
2023/11/12 07:45:20;;;;;;;1.55;1.02;;;;;;;;;;6308092;28;20318;-70
2023/11/12 07:48:35;;;;;;;0.93;0.93;;;;;;;;;;6302289;28;20287;-69
2023/11/12 07:51:39;;;;;;;0.90;0.90;;;;;;;;;;6280823;28;20282;-75
2023/11/12 07:54:43;;;;;;;1.00;1.00;;;;;;;;;;6283542;28;20446;-69
2023/11/12 07:57:47;;;;;;;0.73;0.73;;;;;;;;;;6283653;28;20334;-70
2023/11/12 08:00:50;;;;;;;0.85;0.85;;;;;;;;;;6288621;28;20495;-70
2023/11/12 08:03:57;;;;;;;0.80;0.80;;;;;;;;;;6307980;28;20594;-69
2023/11/12 08:07:01;;;;;;;0.90;0.90;;;;;;;;;;6308618;28;20326;-69
2023/11/12 08:10:08;;;;;;;0.70;0.70;;;;;;;;;;6304271;28;20326;-70
2023/11/12 08:13:16;;;;;;;0.80;0.80;;;;;;;;;;6283115;28;20294;-69
2023/11/12 08:16:20;;;;;;;0.90;0.90;;;;;;;;;;6283547;28;20311;-71
2023/11/12 08:19:25;;;;;;;0.90;0.90;;;;;;;;;;6283322;28;20398;-70
2023/11/12 08:22:29;;;;;;;0.90;0.90;;;;;;;;;;6283312;28;20291;-70
2023/11/12 08:25:32;;;;;;;0.80;0.80;;;;;;;;;;6283077;28;20299;-70
2023/11/12 08:28:36;;;;;;;1.20;1.20;;;;;;;;;;6282822;28;20294;-69
2023/11/12 08:31:41;;;;;;;1.00;1.00;;;;;;;;;;6283041;28;20587;-71
2023/11/12 08:34:46;;;;;;;1.00;1.00;;;;;;;;;;6282554;28;20303;-72
2023/11/12 08:37:50;;;;;;;0.98;0.90;;;;;;;;;;6282930;28;20295;-70
2023/11/12 08:40:54;;;;;;;1.00;1.00;;;;;;;;;;6282269;28;20464;-69
2023/11/12 08:43:58;;;;;;;0.80;0.80;;;;;;;;;;6281350;28;20467;-70
2023/11/12 08:47:03;;;;;;;0.80;0.80;;;;;;;;;;6282033;28;20373;-71
2023/11/12 08:50:09;;;;;;;0.95;0.95;;;;;;;;;;6282460;28;20306;-69
2023/11/12 08:53:13;;;;;;;0.80;0.80;;;;;;;;;;6280648;28;20290;-69
2023/11/12 08:56:17;;;;;;;1.08;1.08;;;;;;;;;;6283227;28;20286;-69
2023/11/12 08:59:20;;;;;;;1.00;1.00;;;;;;;;;;6281463;28;20302;-70
2023/11/12 09:02:24;;;;;;;0.90;0.90;;;;;;;;;;6283019;28;20318;-70
2023/11/12 09:05:29;;;;;;;0.80;0.80;;;;;;;;;;6282556;28;20458;-70
2023/11/12 09:08:37;;;;;;;0.90;0.90;;;;;;;;;;6282439;28;20295;-70
2023/11/12 09:11:41;;;;;;;1.40;1.40;;;;;;;;;;6300174;28;20302;-70
2023/11/12 09:14:45;;;;;;;1.60;1.60;;;;;;;;;;6305111;28;20484;-70
2023/11/12 09:17:49;;;;;;;1.80;1.70;;;;;;;;;;6307813;28;20373;-70
2023/11/12 09:20:54;;;;;;;1.88;1.60;;;;;;;;;;6307165;28;20650;-70
2023/11/12 09:23:57;;;;;;;1.40;1.40;;;;;;;;;;6297808;28;20576;-70
2023/11/12 09:27:01;;;;;;;1.33;1.33;;;;;;;;;;6280663;28;20304;-69
2023/11/12 09:30:08;;;;;;;1.20;1.20;;;;;;;;;;6281780;28;20306;-69
2023/11/12 09:33:12;;;;;;;1.30;1.30;;;;;;;;;;6304409;28;20300;-70
2023/11/12 09:36:18;;;;;;;1.38;1.38;;;;;;;;;;6281908;28;20239;-70
2023/11/12 09:39:23;;;;;;;1.65;1.35;;;;;;;;;;6281520;28;20442;-71
2023/11/12 09:42:28;;;;;;;1.20;1.10;;;;;;;;;;6281979;28;20267;-70
2023/11/12 09:45:33;;;;;;;1.35;1.25;;;;;;;;;;6281214;28;20299;-70
2023/11/12 09:48:39;;;;;;;1.30;1.30;;;;;;;;;;6281248;28;20583;-69
2023/11/12 09:51:45;;;;;;;1.40;1.40;;;;;;;;;;6278738;28;20303;-71
2023/11/12 09:54:50;;;;;;;2.50;1.33;;;;;;;;;;6281219;28;20299;-72
2023/11/12 09:57:54;;;;;;;1.17;1.17;;;;;;;;;;6280678;28;20596;-71
2023/11/12 10:01:00;;;;;;;1.35;1.35;;;;;;;;;;6281110;28;20302;-70
2023/11/12 10:04:03;;;;;;;2.65;1.25;;;;;;;;;;6280929;28;20298;-71
2023/11/12 10:07:09;;;;;;;1.27;1.27;;;;;;;;;;6281315;28;20299;-70
2023/11/12 10:10:22;;;;;;;1.15;1.15;;;;;;;;;;6275187;28;20303;-71
2023/11/12 10:13:36;;;;;;;1.17;1.17;;;;;;;;;;6254566;28;20288;-70
2023/11/12 10:16:40;;;;;;;1.00;1.00;;;;;;;;;;6255986;28;20628;-71
2023/11/12 10:19:55;;;;;;;1.20;1.20;;;;;;;;;;6255595;28;20295;-71
2023/11/12 10:23:01;;;;;;;1.33;1.27;;;;;;;;;;6255587;28;20320;-71
2023/11/12 10:26:11;;;;;;;1.30;1.30;;;;;;;;;;6254194;28;20283;-70
2023/11/12 10:29:19;;;;;;;1.65;1.25;;;;;;;;;;6255442;28;20300;-70
2023/11/12 10:32:26;;;;;;;1.55;1.33;;;;;;;;;;6255806;28;20303;-70
2023/11/12 10:35:30;;;;;;;4.72;1.90;;;;;;;;;;6255253;28;20287;-71
2023/11/12 10:38:46;;;;;;;1.80;1.80;;;;;;;;;;6255093;28;20627;-70
2023/11/12 10:41:50;;;;;;;3.90;2.40;;;;;;;;;;6255830;28;20303;-70
2023/11/12 10:44:56;;;;;;;2.78;1.80;;;;;;;;;;6254821;28;20300;-71
2023/11/12 10:48:01;;;;;;;2.10;1.90;;;;;;;;;;6205800;28;20296;-70
2023/11/12 10:51:06;;;;;;;1.80;1.75;;;;;;;;;;6206894;28;20373;-69
2023/11/12 10:54:13;;;;;;;1.58;1.58;;;;;;;;;;6204521;28;20309;-70
2023/11/12 10:57:18;;;;;;;1.75;1.75;;;;;;;;;;6207335;28;20537;-69
2023/11/12 11:00:23;;;;;;;1.60;1.60;;;;;;;;;;6230334;28;20319;-69
2023/11/12 11:03:28;;;;;;;1.70;1.70;;;;;;;;;;6230345;28;20292;-69
2023/11/12 11:06:33;;;;;;;1.42;1.42;;;;;;;;;;6230606;28;20308;-70
2023/11/12 11:09:38;;;;;;;2.00;1.90;;;;;;;;;;6229980;28;20308;-69
2023/11/12 11:12:42;;;;;;;2.50;2.30;;;;;;;;;;6230629;28;20300;-69
2023/11/12 11:15:52;;;;;;;2.40;2.30;;;;;;;;;;6230376;28;20326;-69
2023/11/12 11:18:56;;;;;;;2.70;2.50;;;;;;;;;;6230430;28;20311;-68
2023/11/12 11:22:25;;;;;;;6.00;3.03;;;;;;;;;;6232509;28;20300;-70
2023/11/12 11:25:31;;;;;;;3.28;3.10;;;;;;;;;;6234800;28;20296;-70
2023/11/12 11:28:35;;;;;;;3.15;2.80;;;;;;;;;;6234611;28;20300;-70
2023/11/12 11:31:40;;;;;;;3.92;3.63;;;;;;;;;;6235229;28;20292;-70
2023/11/12 11:34:44;;;;;;;3.28;3.08;;;;;;;;;;6234401;28;20439;-71
2023/11/12 11:38:11;;;;;;;2.80;2.80;;;;;;;;;;6234958;28;20296;-71
2023/11/12 11:41:17;;;;;;;3.22;3.03;;;;;;;;;;6234121;28;20628;-69
2023/11/12 11:44:41;;;;;;;3.13;3.03;;;;;;;;;;6234459;28;20304;-70
2023/11/12 11:48:05;;;;;;;3.00;2.70;;;;;;;;;;6280065;28;20299;-70
2023/11/12 11:51:45;;;;;;;3.15;3.08;;;;;;;;;;6283158;28;20312;-71
2023/11/12 11:54:55;;;;;;;3.28;3.15;;;;;;;;;;6282792;28;20295;-71
2023/11/12 11:58:04;;;;;;;3.80;3.60;;;;;;;;;;6283875;28;20307;-71
2023/11/12 12:01:08;;;;;;;4.03;3.78;;;;;;;;;;6284063;28;20286;-70
2023/11/12 12:04:13;;;;;;;4.38;4.10;;;;;;;;;;6283804;28;20310;-71
2023/11/12 12:07:22;;;;;;;4.18;4.03;;;;;;;;;;6284042;28;20493;-70
2023/11/12 12:10:26;;;;;;;4.25;3.95;;;;;;;;;;6283278;28;20315;-70
2023/11/12 12:13:33;;;;;;;4.05;3.85;;;;;;;;;;6294307;28;20286;-70
2023/11/12 12:16:36;;;;;;;3.50;3.38;;;;;;;;;;6308745;28;20311;-71
2023/11/12 12:19:41;;;;;;;2.97;2.83;;;;;;;;;;6307537;28;20516;-70
2023/11/12 12:22:45;;;;;;;3.22;3.13;;;;;;;;;;6308285;28;20458;-70
2023/11/12 12:25:50;;;;;;;5.25;3.45;;;;;;;;;;6307518;28;20297;-71
2023/11/12 12:28:56;;;;;;;3.45;3.25;;;;;;;;;;6307791;28;20301;-71
2023/11/12 12:32:12;;;;;;;3.03;2.92;;;;;;;;;;6307484;28;20499;-71
2023/11/12 12:35:21;;;;;;;3.58;3.38;;;;;;;;;;6306505;28;20359;-71
2023/11/12 12:38:25;;;;;;;3.03;2.92;;;;;;;;;;6306981;28;20472;-71
2023/11/12 12:41:29;;;;;;;2.75;2.65;;;;;;;;;;6307450;28;20294;-71
2023/11/12 12:44:34;;;;;;;2.90;2.80;;;;;;;;;;6306218;28;20509;-70
2023/11/12 12:47:41;;;;;;;2.72;2.53;;;;;;;;;;6307287;28;20473;-70
2023/11/12 12:50:45;;;;;;;3.22;3.03;;;;;;;;;;6306107;28;20337;-69
2023/11/12 12:53:50;;;;;;;3.63;3.38;;;;;;;;;;6305293;28;20586;-71
2023/11/12 12:56:54;;;;;;;3.10;2.90;;;;;;;;;;6307797;28;20373;-70
2023/11/12 13:00:00;;;;;;;3.40;3.20;;;;;;;;;;6306941;28;20293;-69
2023/11/12 13:03:14;;;;;;;3.00;2.90;;;;;;;;;;6306822;28;20231;-69
2023/11/12 13:06:18;;;;;;;2.45;2.45;;;;;;;;;;6306310;28;20544;-69
2023/11/12 13:09:27;;;;;;;2.80;2.70;;;;;;;;;;6305127;28;20298;-71
2023/11/12 13:12:30;;;;;;;3.38;2.70;;;;;;;;;;6261270;28;20284;-69
2023/11/12 13:15:36;;;;;;;5.38;3.05;;;;;;;;;;6282070;28;20294;-69
2023/11/12 13:18:40;;;;;;;2.97;2.88;;;;;;;;;;6282122;28;20298;-69
2023/11/12 13:21:44;;;;;;;2.88;2.75;;;;;;;;;;6282342;28;20480;-70
2023/11/12 13:25:02;;;;;;;2.88;2.78;;;;;;;;;;6281753;28;20299;-71
2023/11/12 13:28:08;;;;;;;3.17;2.97;;;;;;;;;;6281828;28;20294;-70
2023/11/12 13:31:15;;;;;;;3.65;3.40;;;;;;;;;;6282204;28;20298;-71
2023/11/12 13:34:18;;;;;;;2.85;2.65;;;;;;;;;;6281485;28;20299;-72
2023/11/12 13:37:23;;;;;;;2.72;2.58;;;;;;;;;;6281731;28;20310;-72
2023/11/12 13:40:27;;;;;;;10.23;2.40;;;;;;;;;;6281225;28;20299;-71
2023/11/12 13:43:32;;;;;;;2.85;2.75;;;;;;;;;;6281345;28;20378;-70
2023/11/12 13:46:37;;;;;;;2.40;2.30;;;;;;;;;;6281925;28;20295;-70
2023/11/12 13:49:41;;;;;;;2.17;2.17;;;;;;;;;;6281111;28;20394;-71
2023/11/12 13:52:46;;;;;;;3.53;2.30;;;;;;;;;;6278532;28;20291;-72
2023/11/12 13:55:54;;;;;;;2.97;2.83;;;;;;;;;;6281299;28;20298;-70
2023/11/12 13:59:03;;;;;;;2.55;2.40;;;;;;;;;;6281218;28;20319;-71
2023/11/12 14:02:10;;;;;;;5.38;4.28;;;;;;;;;;6281661;28;20367;-69
2023/11/12 14:05:16;;;;;;;7.10;3.05;;;;;;;;;;6281019;28;20290;-70
2023/11/12 14:08:20;;;;;;;2.70;2.60;;;;;;;;;;6280739;28;20303;-70
2023/11/12 14:11:24;;;;;;;3.83;2.70;;;;;;;;;;6281459;28;20314;-68
2023/11/12 14:14:28;;;;;;;2.47;2.38;;;;;;;;;;6299856;28;20297;-71
2023/11/12 14:17:35;;;;;;;2.08;2.05;;;;;;;;;;6305976;28;20294;-71
2023/11/12 14:20:39;;;;;;;2.03;2.03;;;;;;;;;;6305366;28;20301;-71
2023/11/12 14:23:43;;;;;;;16.42;6.57;;;;;;;;;;6305672;28;20631;-71
2023/11/12 14:26:47;;;;;;;2.58;2.47;;;;;;;;;;6304335;28;20489;-70
2023/11/12 14:29:51;;;;;;;3.50;2.80;;;;;;;;;;6305335;28;20532;-70
2023/11/12 14:32:56;;;;;;;3.20;3.05;;;;;;;;;;6304294;28;20293;-72
2023/11/12 14:36:00;;;;;;;5.88;3.67;;;;;;;;;;6305869;28;20318;-70
2023/11/12 14:39:09;;;;;;;4.07;3.50;;;;;;;;;;6305550;28;20298;-70
2023/11/12 14:42:13;;;;;;;3.83;3.33;;;;;;;;;;6305553;28;20594;-70
2023/11/12 14:45:18;;;;;;;2.97;2.85;;;;;;;;;;6305244;28;20297;-70
2023/11/12 14:48:35;;;;;;;3.13;2.95;;;;;;;;;;6305047;28;20305;-70
2023/11/12 14:51:40;;;;;;;2.40;2.30;;;;;;;;;;6304465;28;20286;-76
2023/11/12 14:54:45;;;;;;;2.60;2.40;;;;;;;;;;6305407;28;20559;-70
2023/11/12 14:57:48;;;;;;;2.30;2.20;;;;;;;;;;6309499;28;20298;-70
2023/11/12 15:00:52;;;;;;;2.45;2.28;;;;;;;;;;6309917;28;20303;-71
2023/11/12 15:03:57;;;;;;;2.50;2.30;;;;;;;;;;6303462;28;20298;-71
2023/11/12 15:07:01;;;;;;;2.40;2.30;;;;;;;;;;6285488;28;20544;-70
2023/11/12 15:10:06;;;;;;;2.47;2.28;;;;;;;;;;6280675;28;20453;-70
2023/11/12 15:13:10;;;;;;;2.30;2.20;;;;;;;;;;6260130;28;20291;-69
2023/11/12 15:16:18;;;;;;;2.40;2.30;;;;;;;;;;6260549;28;20474;-69
2023/11/12 15:19:23;;;;;;;2.78;2.67;;;;;;;;;;6260228;28;20296;-70
2023/11/12 15:22:27;;;;;;;2.08;1.98;;;;;;;;;;6260690;28;20291;-75
2023/11/12 15:25:31;;;;;;;2.13;2.13;;;;;;;;;;6260978;28;20291;-74
2023/11/12 15:28:35;;;;;;;1.83;1.83;;;;;;;;;;6259625;28;20396;-69
2023/11/12 15:31:40;;;;;;;2.28;2.17;;;;;;;;;;6259968;28;20287;-69
2023/11/12 15:34:45;;;;;;;1.95;1.85;;;;;;;;;;6259939;28;20301;-69
2023/11/12 15:37:48;;;;;;;1.90;1.83;;;;;;;;;;6260022;28;20296;-69
2023/11/12 15:40:52;;;;;;;2.03;1.92;;;;;;;;;;6283675;28;20315;-70
2023/11/12 15:43:57;;;;;;;2.00;2.00;;;;;;;;;;6284100;28;20291;-71
2023/11/12 15:47:01;;;;;;;1.70;1.70;;;;;;;;;;6284437;28;20591;-70
2023/11/12 15:50:09;;;;;;;2.05;2.05;;;;;;;;;;6284184;28;20303;-71
2023/11/12 15:53:13;;;;;;;2.00;1.90;;;;;;;;;;6282400;28;20290;-71
2023/11/12 15:56:17;;;;;;;2.10;2.00;;;;;;;;;;6284783;28;20303;-69
2023/11/12 15:59:21;;;;;;;1.80;1.80;;;;;;;;;;6283936;28;20311;-69
2023/11/12 16:02:25;;;;;;;2.60;2.50;;;;;;;;;;6284331;28;20298;-69
2023/11/12 16:05:32;;;;;;;2.08;2.00;;;;;;;;;;6282921;28;20295;-70
2023/11/12 16:08:35;;;;;;;2.45;2.22;;;;;;;;;;6281603;28;20296;-70
2023/11/12 16:11:46;;;;;;;2.50;2.40;;;;;;;;;;6283444;28;20318;-70
2023/11/12 16:14:49;;;;;;;2.55;2.35;;;;;;;;;;6283009;28;20294;-72
2023/11/12 16:17:53;;;;;;;2.25;2.20;;;;;;;;;;6283302;28;20299;-72
2023/11/12 16:20:59;;;;;;;2.63;2.60;;;;;;;;;;6283014;28;20279;-70
2023/11/12 16:24:02;;;;;;;2.50;2.38;;;;;;;;;;6282401;28;20303;-72
2023/11/12 16:27:06;;;;;;;2.30;2.30;;;;;;;;;;6283234;28;20298;-72
2023/11/12 16:30:12;;;;;;;2.78;2.58;;;;;;;;;;6282587;28;20326;-70
2023/11/12 16:33:16;;;;;;;5.68;2.95;;;;;;;;;;6281533;28;20287;-70
2023/11/12 16:36:21;;;;;;;3.20;3.00;;;;;;;;;;6282797;28;20270;-71
2023/11/12 16:39:24;;;;;;;3.35;3.17;;;;;;;;;;6282253;28;20295;-71
2023/11/12 16:42:28;;;;;;;2.67;2.58;;;;;;;;;;6282642;28;20287;-71
2023/11/12 16:45:32;;;;;;;2.70;2.63;;;;;;;;;;6282090;28;20295;-71
2023/11/12 16:48:36;;;;;;;3.67;3.22;;;;;;;;;;6282331;28;20310;-70
2023/11/12 16:51:41;;;;;;;4.93;3.10;;;;;;;;;;6281025;28;20291;-75
2023/11/12 16:54:46;;;;;;;3.03;2.70;;;;;;;;;;6282000;28;20286;-71
2023/11/12 16:57:50;;;;;;;3.30;3.10;;;;;;;;;;6282372;28;20296;-71
2023/11/12 17:00:54;;;;;;;3.20;3.00;;;;;;;;;;6282047;28;20299;-69
2023/11/12 17:03:58;;;;;;;3.05;2.95;;;;;;;;;;6281948;28;20315;-70
2023/11/12 17:07:04;;;;;;;3.17;3.00;;;;;;;;;;6282637;28;20299;-70
2023/11/12 17:10:09;;;;;;;4.93;2.85;;;;;;;;;;6281421;28;20216;-71
2023/11/12 17:13:13;;;;;;;3.20;3.00;;;;;;;;;;6290656;28;20282;-70
2023/11/12 17:16:17;;;;;;;2.58;2.50;;;;;;;;;;6307771;28;20295;-72
2023/11/12 17:19:21;;;;;;;3.00;2.88;;;;;;;;;;6305668;28;20366;-70
2023/11/12 17:22:26;;;;;;;3.88;3.17;;;;;;;;;;6306553;28;20298;-71
2023/11/12 17:25:30;;;;;;;3.13;2.97;;;;;;;;;;6305916;28;20322;-70
2023/11/12 17:28:34;;;;;;;3.33;3.15;;;;;;;;;;6306250;28;20310;-71
2023/11/12 17:31:38;;;;;;;4.65;2.83;;;;;;;;;;6306289;28;20559;-71
2023/11/12 17:34:43;;;;;;;3.63;2.95;;;;;;;;;;6305840;28;20294;-71
2023/11/12 17:37:48;;;;;;;2.92;2.72;;;;;;;;;;6306305;28;20350;-72
2023/11/12 17:40:51;;;;;;;2.83;2.60;;;;;;;;;;6305702;28;20306;-71
2023/11/12 17:43:56;;;;;;;2.95;2.85;;;;;;;;;;6305788;28;20301;-71
2023/11/12 17:47:00;;;;;;;2.83;2.72;;;;;;;;;;6306058;28;20282;-70
2023/11/12 17:50:06;;;;;;;2.30;2.30;;;;;;;;;;6305770;28;20310;-70
2023/11/12 17:53:12;;;;;;;7.75;3.33;;;;;;;;;;6303572;28;20619;-70
2023/11/12 17:56:16;;;;;;;2.78;2.67;;;;;;;;;;6305855;28;20297;-71
2023/11/12 17:59:20;;;;;;;2.40;2.22;;;;;;;;;;6305403;28;20309;-69
2023/11/12 18:02:24;;;;;;;2.20;2.20;;;;;;;;;;6305809;28;20289;-70
2023/11/12 18:05:28;;;;;;;2.22;2.17;;;;;;;;;;6305531;28;20306;-71
2023/11/12 18:08:34;;;;;;;2.55;2.25;;;;;;;;;;6305529;28;20294;-70
2023/11/12 18:11:38;;;;;;;2.00;1.90;;;;;;;;;;6288815;28;20291;-71
2023/11/12 18:14:41;;;;;;;2.15;1.92;;;;;;;;;;6280092;28;20624;-71
2023/11/12 18:17:45;;;;;;;3.05;2.28;;;;;;;;;;6279585;28;20286;-71
2023/11/12 18:20:49;;;;;;;1.60;1.60;;;;;;;;;;6280496;28;20488;-70
2023/11/12 18:23:54;;;;;;;1.50;1.50;;;;;;;;;;6280104;28;20310;-70
2023/11/12 18:26:59;;;;;;;1.65;1.65;;;;;;;;;;6280575;28;20644;-71
2023/11/12 18:30:05;;;;;;;2.88;1.98;;;;;;;;;;6280241;28;20307;-70